< < Back
Terminal Aerodrome Forecast


Current Version              Previous Versions:   1  2  3  4  5  6  7  8  9  

Terminal Aerodrome Forecast

248
FTUS42 KGSP 241130
TAFCLT
TAF
KCLT 241130Z 2412/2512 34003KT P6SM BKN210
     FM241600 04003KT P6SM SCT180
     FM242000 23003KT P6SM SCT170
     FM250400 34003KT P6SM SKC=



Latest METAR

370
SAUS70 KWBC 242000 RRA
MTRCLT
METAR KCLT 241952Z 24004KT 10SM BKN200 19/04 A3001 RMK AO2 SLP158
T01940039


USA.gov is the U.S. government's official web portal to all federal, state and local government web resources and services.